sensor_id;sensor_type;location;lat;lon;timestamp;P1;durP1;ratioP1;P2;durP2;ratioP2
42338;SDS011;27993;45.392;10.918;2023-03-08T00:00:19;26.00;;;12.47;;
42338;SDS011;27993;45.392;10.918;2023-03-08T00:02:50;22.83;;;11.63;;
42338;SDS011;27993;45.392;10.918;2023-03-08T00:05:22;38.13;;;13.52;;
42338;SDS011;27993;45.392;10.918;2023-03-08T00:07:53;31.67;;;13.57;;
42338;SDS011;27993;45.392;10.918;2023-03-08T00:10:24;38.00;;;12.65;;
42338;SDS011;27993;45.392;10.918;2023-03-08T00:12:55;29.93;;;11.73;;
42338;SDS011;27993;45.392;10.918;2023-03-08T00:15:25;28.00;;;12.80;;
42338;SDS011;27993;45.392;10.918;2023-03-08T00:17:56;27.43;;;12.67;;
42338;SDS011;27993;45.392;10.918;2023-03-08T00:20:27;35.27;;;13.60;;
42338;SDS011;27993;45.392;10.918;2023-03-08T00:22:57;33.53;;;12.83;;
42338;SDS011;27993;45.392;10.918;2023-03-08T00:25:28;22.53;;;11.37;;
42338;SDS011;27993;45.392;10.918;2023-03-08T00:27:58;32.73;;;13.03;;
42338;SDS011;27993;45.392;10.918;2023-03-08T00:30:29;24.40;;;13.40;;
42338;SDS011;27993;45.392;10.918;2023-03-08T00:32:59;21.13;;;11.47;;
42338;SDS011;27993;45.392;10.918;2023-03-08T00:35:30;20.43;;;12.60;;
42338;SDS011;27993;45.392;10.918;2023-03-08T00:38:00;20.97;;;11.03;;
42338;SDS011;27993;45.392;10.918;2023-03-08T00:40:31;20.83;;;11.60;;
42338;SDS011;27993;45.392;10.918;2023-03-08T00:43:01;25.90;;;11.40;;
42338;SDS011;27993;45.392;10.918;2023-03-08T00:45:32;22.47;;;12.07;;
42338;SDS011;27993;45.392;10.918;2023-03-08T00:48:02;44.27;;;20.97;;
42338;SDS011;27993;45.392;10.918;2023-03-08T00:50:33;41.20;;;18.37;;
42338;SDS011;27993;45.392;10.918;2023-03-08T00:53:04;39.63;;;16.90;;
42338;SDS011;27993;45.392;10.918;2023-03-08T00:55:34;43.87;;;18.70;;
42338;SDS011;27993;45.392;10.918;2023-03-08T00:58:05;31.87;;;15.77;;
42338;SDS011;27993;45.392;10.918;2023-03-08T01:00:36;29.90;;;14.83;;
42338;SDS011;27993;45.392;10.918;2023-03-08T01:03:06;24.83;;;13.37;;
42338;SDS011;27993;45.392;10.918;2023-03-08T01:05:41;18.90;;;11.63;;
42338;SDS011;27993;45.392;10.918;2023-03-08T01:08:13;18.10;;;11.60;;
42338;SDS011;27993;45.392;10.918;2023-03-08T01:10:54;18.67;;;11.10;;
42338;SDS011;27993;45.392;10.918;2023-03-08T01:13:31;20.85;;;10.07;;
42338;SDS011;27993;45.392;10.918;2023-03-08T01:16:03;16.48;;;9.07;;
42338;SDS011;27993;45.392;10.918;2023-03-08T01:18:34;16.53;;;10.33;;
42338;SDS011;27993;45.392;10.918;2023-03-08T01:21:04;16.23;;;9.57;;
42338;SDS011;27993;45.392;10.918;2023-03-08T01:23:35;25.87;;;12.30;;
42338;SDS011;27993;45.392;10.918;2023-03-08T01:26:07;16.83;;;10.90;;
42338;SDS011;27993;45.392;10.918;2023-03-08T01:28:42;23.65;;;12.23;;
42338;SDS011;27993;45.392;10.918;2023-03-08T01:31:14;27.75;;;11.63;;
42338;SDS011;27993;45.392;10.918;2023-03-08T01:33:46;24.58;;;11.93;;
42338;SDS011;27993;45.392;10.918;2023-03-08T01:38:50;18.55;;;10.65;;
42338;SDS011;27993;45.392;10.918;2023-03-08T01:41:25;31.15;;;11.98;;
42338;SDS011;27993;45.392;10.918;2023-03-08T01:43:58;20.48;;;11.50;;
42338;SDS011;27993;45.392;10.918;2023-03-08T01:49:15;31.80;;;12.10;;
42338;SDS011;27993;45.392;10.918;2023-03-08T01:51:51;25.80;;;11.75;;
42338;SDS011;27993;45.392;10.918;2023-03-08T01:54:27;18.90;;;11.10;;
42338;SDS011;27993;45.392;10.918;2023-03-08T01:57:02;26.48;;;12.57;;
42338;SDS011;27993;45.392;10.918;2023-03-08T01:59:40;27.30;;;12.80;;
42338;SDS011;27993;45.392;10.918;2023-03-08T02:02:12;20.08;;;11.07;;
42338;SDS011;27993;45.392;10.918;2023-03-08T02:04:43;28.53;;;10.67;;
42338;SDS011;27993;45.392;10.918;2023-03-08T02:07:14;19.98;;;11.15;;
42338;SDS011;27993;45.392;10.918;2023-03-08T02:09:45;24.60;;;9.57;;
42338;SDS011;27993;45.392;10.918;2023-03-08T02:12:16;26.58;;;11.07;;
42338;SDS011;27993;45.392;10.918;2023-03-08T02:14:47;19.00;;;9.60;;
42338;SDS011;27993;45.392;10.918;2023-03-08T02:17:18;21.58;;;11.27;;
42338;SDS011;27993;45.392;10.918;2023-03-08T02:19:54;21.50;;;10.77;;
42338;SDS011;27993;45.392;10.918;2023-03-08T02:22:30;17.60;;;11.13;;
42338;SDS011;27993;45.392;10.918;2023-03-08T02:25:02;27.80;;;11.55;;
42338;SDS011;27993;45.392;10.918;2023-03-08T02:27:38;25.37;;;12.70;;
42338;SDS011;27993;45.392;10.918;2023-03-08T02:30:09;20.57;;;10.97;;
42338;SDS011;27993;45.392;10.918;2023-03-08T02:32:42;29.87;;;12.10;;
42338;SDS011;27993;45.392;10.918;2023-03-08T02:35:13;30.10;;;10.40;;
42338;SDS011;27993;45.392;10.918;2023-03-08T02:37:43;19.12;;;10.88;;
42338;SDS011;27993;45.392;10.918;2023-03-08T02:40:14;28.07;;;11.53;;
42338;SDS011;27993;45.392;10.918;2023-03-08T02:42:44;20.00;;;11.03;;
42338;SDS011;27993;45.392;10.918;2023-03-08T02:45:15;25.73;;;10.37;;
42338;SDS011;27993;45.392;10.918;2023-03-08T02:47:46;22.08;;;10.63;;
42338;SDS011;27993;45.392;10.918;2023-03-08T02:50:16;18.67;;;9.30;;
42338;SDS011;27993;45.392;10.918;2023-03-08T02:52:47;28.90;;;9.67;;
42338;SDS011;27993;45.392;10.918;2023-03-08T02:55:18;29.70;;;10.07;;
42338;SDS011;27993;45.392;10.918;2023-03-08T02:57:48;26.70;;;10.80;;
42338;SDS011;27993;45.392;10.918;2023-03-08T03:00:19;23.77;;;10.50;;
42338;SDS011;27993;45.392;10.918;2023-03-08T03:02:50;20.40;;;9.10;;
42338;SDS011;27993;45.392;10.918;2023-03-08T03:05:20;28.50;;;10.97;;
42338;SDS011;27993;45.392;10.918;2023-03-08T03:07:51;25.77;;;10.33;;
42338;SDS011;27993;45.392;10.918;2023-03-08T03:10:21;29.87;;;9.97;;
42338;SDS011;27993;45.392;10.918;2023-03-08T03:12:52;15.20;;;8.93;;
42338;SDS011;27993;45.392;10.918;2023-03-08T03:15:23;15.47;;;9.47;;
42338;SDS011;27993;45.392;10.918;2023-03-08T03:17:53;18.70;;;9.27;;
42338;SDS011;27993;45.392;10.918;2023-03-08T03:20:25;25.73;;;8.93;;
42338;SDS011;27993;45.392;10.918;2023-03-08T03:22:56;26.83;;;10.20;;
42338;SDS011;27993;45.392;10.918;2023-03-08T03:25:30;23.60;;;9.55;;
42338;SDS011;27993;45.392;10.918;2023-03-08T03:28:01;17.45;;;8.60;;
42338;SDS011;27993;45.392;10.918;2023-03-08T03:30:32;12.67;;;7.43;;
42338;SDS011;27993;45.392;10.918;2023-03-08T03:33:02;15.83;;;7.77;;
42338;SDS011;27993;45.392;10.918;2023-03-08T03:35:33;29.60;;;9.37;;
42338;SDS011;27993;45.392;10.918;2023-03-08T03:38:03;21.95;;;9.40;;
42338;SDS011;27993;45.392;10.918;2023-03-08T03:40:34;27.17;;;9.38;;
42338;SDS011;27993;45.392;10.918;2023-03-08T03:43:04;32.42;;;9.50;;
42338;SDS011;27993;45.392;10.918;2023-03-08T03:45:35;17.17;;;8.35;;
42338;SDS011;27993;45.392;10.918;2023-03-08T03:48:05;19.93;;;8.33;;
42338;SDS011;27993;45.392;10.918;2023-03-08T03:50:36;28.47;;;8.57;;
42338;SDS011;27993;45.392;10.918;2023-03-08T03:53:07;23.23;;;8.10;;
42338;SDS011;27993;45.392;10.918;2023-03-08T03:55:37;21.83;;;10.35;;
42338;SDS011;27993;45.392;10.918;2023-03-08T03:58:08;18.00;;;8.27;;
42338;SDS011;27993;45.392;10.918;2023-03-08T04:00:38;20.48;;;8.25;;
42338;SDS011;27993;45.392;10.918;2023-03-08T04:03:09;18.80;;;7.62;;
42338;SDS011;27993;45.392;10.918;2023-03-08T04:05:39;27.48;;;10.07;;
42338;SDS011;27993;45.392;10.918;2023-03-08T04:08:10;20.30;;;8.70;;
42338;SDS011;27993;45.392;10.918;2023-03-08T04:10:41;24.58;;;8.95;;
42338;SDS011;27993;45.392;10.918;2023-03-08T04:13:11;19.42;;;9.43;;
42338;SDS011;27993;45.392;10.918;2023-03-08T04:15:42;20.65;;;9.18;;
42338;SDS011;27993;45.392;10.918;2023-03-08T04:18:13;19.85;;;8.63;;
42338;SDS011;27993;45.392;10.918;2023-03-08T04:20:44;20.03;;;9.87;;
42338;SDS011;27993;45.392;10.918;2023-03-08T04:23:15;28.65;;;9.52;;
42338;SDS011;27993;45.392;10.918;2023-03-08T04:25:46;24.90;;;10.47;;
42338;SDS011;27993;45.392;10.918;2023-03-08T04:28:16;19.30;;;9.40;;
42338;SDS011;27993;45.392;10.918;2023-03-08T04:30:47;22.67;;;9.10;;
42338;SDS011;27993;45.392;10.918;2023-03-08T04:33:17;15.43;;;8.43;;
42338;SDS011;27993;45.392;10.918;2023-03-08T04:35:48;21.50;;;8.83;;
42338;SDS011;27993;45.392;10.918;2023-03-08T04:38:19;19.80;;;8.27;;
42338;SDS011;27993;45.392;10.918;2023-03-08T04:40:49;18.90;;;10.25;;
42338;SDS011;27993;45.392;10.918;2023-03-08T04:43:44;21.25;;;9.10;;
42338;SDS011;27993;45.392;10.918;2023-03-08T04:46:15;16.77;;;8.80;;
42338;SDS011;27993;45.392;10.918;2023-03-08T04:48:48;22.90;;;9.50;;
42338;SDS011;27993;45.392;10.918;2023-03-08T04:51:22;22.55;;;8.48;;
42338;SDS011;27993;45.392;10.918;2023-03-08T04:53:57;14.93;;;9.43;;
42338;SDS011;27993;45.392;10.918;2023-03-08T04:56:28;23.98;;;8.93;;
42338;SDS011;27993;45.392;10.918;2023-03-08T04:58:59;22.15;;;9.55;;
42338;SDS011;27993;45.392;10.918;2023-03-08T05:01:29;20.83;;;9.15;;
42338;SDS011;27993;45.392;10.918;2023-03-08T05:04:00;25.55;;;9.45;;
42338;SDS011;27993;45.392;10.918;2023-03-08T05:06:31;21.02;;;10.20;;
42338;SDS011;27993;45.392;10.918;2023-03-08T05:09:01;19.58;;;8.98;;
42338;SDS011;27993;45.392;10.918;2023-03-08T05:11:32;17.63;;;9.07;;
42338;SDS011;27993;45.392;10.918;2023-03-08T05:14:02;22.83;;;9.98;;
42338;SDS011;27993;45.392;10.918;2023-03-08T05:16:33;19.50;;;10.25;;
42338;SDS011;27993;45.392;10.918;2023-03-08T05:19:04;29.80;;;10.57;;
42338;SDS011;27993;45.392;10.918;2023-03-08T05:21:34;24.77;;;9.70;;
42338;SDS011;27993;45.392;10.918;2023-03-08T05:24:05;21.90;;;10.30;;
42338;SDS011;27993;45.392;10.918;2023-03-08T05:26:36;29.63;;;10.18;;
42338;SDS011;27993;45.392;10.918;2023-03-08T05:29:10;24.48;;;9.50;;
42338;SDS011;27993;45.392;10.918;2023-03-08T05:31:40;14.27;;;8.55;;
42338;SDS011;27993;45.392;10.918;2023-03-08T05:34:14;25.40;;;9.98;;
42338;SDS011;27993;45.392;10.918;2023-03-08T05:36:44;23.95;;;9.23;;
42338;SDS011;27993;45.392;10.918;2023-03-08T05:39:15;35.75;;;11.27;;
42338;SDS011;27993;45.392;10.918;2023-03-08T05:41:46;21.50;;;8.98;;
42338;SDS011;27993;45.392;10.918;2023-03-08T05:44:16;20.23;;;9.18;;
42338;SDS011;27993;45.392;10.918;2023-03-08T05:46:50;21.70;;;9.57;;
42338;SDS011;27993;45.392;10.918;2023-03-08T05:49:21;17.90;;;9.43;;
42338;SDS011;27993;45.392;10.918;2023-03-08T05:51:52;22.98;;;10.75;;
42338;SDS011;27993;45.392;10.918;2023-03-08T05:54:23;25.92;;;10.15;;
42338;SDS011;27993;45.392;10.918;2023-03-08T05:56:54;22.33;;;9.00;;
42338;SDS011;27993;45.392;10.918;2023-03-08T05:59:25;25.67;;;10.05;;
42338;SDS011;27993;45.392;10.918;2023-03-08T06:01:56;19.17;;;9.23;;
42338;SDS011;27993;45.392;10.918;2023-03-08T06:04:26;22.07;;;9.83;;
42338;SDS011;27993;45.392;10.918;2023-03-08T06:06:57;24.52;;;9.85;;
42338;SDS011;27993;45.392;10.918;2023-03-08T06:09:27;33.40;;;10.55;;
42338;SDS011;27993;45.392;10.918;2023-03-08T06:11:58;24.20;;;9.23;;
42338;SDS011;27993;45.392;10.918;2023-03-08T06:14:28;24.58;;;8.77;;
42338;SDS011;27993;45.392;10.918;2023-03-08T06:16:59;15.77;;;8.77;;
42338;SDS011;27993;45.392;10.918;2023-03-08T06:19:29;23.77;;;8.67;;
42338;SDS011;27993;45.392;10.918;2023-03-08T06:22:00;16.42;;;9.82;;
42338;SDS011;27993;45.392;10.918;2023-03-08T06:24:31;13.25;;;8.55;;
42338;SDS011;27993;45.392;10.918;2023-03-08T06:27:01;25.00;;;10.40;;
42338;SDS011;27993;45.392;10.918;2023-03-08T06:29:32;19.20;;;9.27;;
42338;SDS011;27993;45.392;10.918;2023-03-08T06:32:03;18.42;;;9.35;;
42338;SDS011;27993;45.392;10.918;2023-03-08T06:34:34;21.03;;;9.60;;
42338;SDS011;27993;45.392;10.918;2023-03-08T06:37:04;18.13;;;8.53;;
42338;SDS011;27993;45.392;10.918;2023-03-08T06:39:35;32.58;;;11.00;;
42338;SDS011;27993;45.392;10.918;2023-03-08T06:42:05;20.73;;;10.27;;
42338;SDS011;27993;45.392;10.918;2023-03-08T06:44:36;32.83;;;12.83;;
42338;SDS011;27993;45.392;10.918;2023-03-08T06:47:07;35.23;;;13.90;;
42338;SDS011;27993;45.392;10.918;2023-03-08T06:49:40;37.58;;;16.02;;
42338;SDS011;27993;45.392;10.918;2023-03-08T06:52:10;32.83;;;15.17;;
42338;SDS011;27993;45.392;10.918;2023-03-08T06:54:41;37.77;;;15.97;;
42338;SDS011;27993;45.392;10.918;2023-03-08T06:57:11;33.33;;;13.63;;
42338;SDS011;27993;45.392;10.918;2023-03-08T06:59:42;41.03;;;13.93;;
42338;SDS011;27993;45.392;10.918;2023-03-08T07:02:13;24.37;;;12.87;;
42338;SDS011;27993;45.392;10.918;2023-03-08T07:04:43;21.93;;;11.97;;
42338;SDS011;27993;45.392;10.918;2023-03-08T07:07:14;26.80;;;10.97;;
42338;SDS011;27993;45.392;10.918;2023-03-08T07:09:44;26.90;;;11.83;;
42338;SDS011;27993;45.392;10.918;2023-03-08T07:12:15;22.97;;;10.87;;
42338;SDS011;27993;45.392;10.918;2023-03-08T07:14:45;27.10;;;11.83;;
42338;SDS011;27993;45.392;10.918;2023-03-08T07:17:16;17.77;;;10.37;;
42338;SDS011;27993;45.392;10.918;2023-03-08T07:19:46;38.00;;;11.77;;
42338;SDS011;27993;45.392;10.918;2023-03-08T07:22:17;14.70;;;8.97;;
42338;SDS011;27993;45.392;10.918;2023-03-08T07:24:47;21.43;;;10.73;;
42338;SDS011;27993;45.392;10.918;2023-03-08T07:27:18;24.90;;;10.40;;
42338;SDS011;27993;45.392;10.918;2023-03-08T07:29:49;17.37;;;9.70;;
42338;SDS011;27993;45.392;10.918;2023-03-08T07:32:19;22.87;;;10.40;;
42338;SDS011;27993;45.392;10.918;2023-03-08T07:34:52;27.80;;;10.18;;
42338;SDS011;27993;45.392;10.918;2023-03-08T07:37:22;20.13;;;9.80;;
42338;SDS011;27993;45.392;10.918;2023-03-08T07:39:53;22.70;;;9.35;;
42338;SDS011;27993;45.392;10.918;2023-03-08T07:42:24;19.20;;;9.53;;
42338;SDS011;27993;45.392;10.918;2023-03-08T07:44:56;21.90;;;10.30;;
42338;SDS011;27993;45.392;10.918;2023-03-08T07:47:26;17.90;;;9.97;;
42338;SDS011;27993;45.392;10.918;2023-03-08T07:49:57;13.52;;;9.13;;
42338;SDS011;27993;45.392;10.918;2023-03-08T07:52:28;14.77;;;9.27;;
42338;SDS011;27993;45.392;10.918;2023-03-08T07:54:59;16.92;;;11.52;;
42338;SDS011;27993;45.392;10.918;2023-03-08T07:57:31;21.23;;;12.57;;
42338;SDS011;27993;45.392;10.918;2023-03-08T08:00:02;20.70;;;10.68;;
42338;SDS011;27993;45.392;10.918;2023-03-08T08:02:37;23.85;;;12.25;;
42338;SDS011;27993;45.392;10.918;2023-03-08T08:05:08;25.17;;;12.18;;
42338;SDS011;27993;45.392;10.918;2023-03-08T08:07:38;20.77;;;11.30;;
42338;SDS011;27993;45.392;10.918;2023-03-08T08:10:09;37.55;;;12.05;;
42338;SDS011;27993;45.392;10.918;2023-03-08T08:12:40;20.58;;;11.60;;
42338;SDS011;27993;45.392;10.918;2023-03-08T08:15:10;19.17;;;9.98;;
42338;SDS011;27993;45.392;10.918;2023-03-08T08:17:41;23.75;;;12.60;;
42338;SDS011;27993;45.392;10.918;2023-03-08T08:20:12;24.23;;;12.73;;
42338;SDS011;27993;45.392;10.918;2023-03-08T08:22:43;25.15;;;12.15;;
42338;SDS011;27993;45.392;10.918;2023-03-08T08:25:14;22.02;;;10.95;;
42338;SDS011;27993;45.392;10.918;2023-03-08T08:27:44;24.20;;;10.68;;
42338;SDS011;27993;45.392;10.918;2023-03-08T08:32:46;21.87;;;11.40;;
42338;SDS011;27993;45.392;10.918;2023-03-08T08:37:47;22.47;;;12.83;;
42338;SDS011;27993;45.392;10.918;2023-03-08T08:42:48;26.37;;;14.23;;
42338;SDS011;27993;45.392;10.918;2023-03-08T08:45:21;19.85;;;13.93;;
42338;SDS011;27993;45.392;10.918;2023-03-08T08:50:22;23.23;;;13.77;;
42338;SDS011;27993;45.392;10.918;2023-03-08T08:52:52;21.35;;;15.13;;
42338;SDS011;27993;45.392;10.918;2023-03-08T08:55:23;26.42;;;14.48;;
42338;SDS011;27993;45.392;10.918;2023-03-08T08:57:53;22.48;;;13.70;;
42338;SDS011;27993;45.392;10.918;2023-03-08T09:00:24;26.25;;;14.65;;
42338;SDS011;27993;45.392;10.918;2023-03-08T09:02:55;24.87;;;15.82;;
42338;SDS011;27993;45.392;10.918;2023-03-08T09:05:25;26.33;;;15.13;;
42338;SDS011;27993;45.392;10.918;2023-03-08T09:07:57;21.80;;;15.00;;
42338;SDS011;27993;45.392;10.918;2023-03-08T09:10:31;24.37;;;16.77;;
42338;SDS011;27993;45.392;10.918;2023-03-08T09:13:03;29.08;;;16.42;;
42338;SDS011;27993;45.392;10.918;2023-03-08T09:15:34;24.35;;;15.60;;
42338;SDS011;27993;45.392;10.918;2023-03-08T09:18:06;27.75;;;19.40;;
42338;SDS011;27993;45.392;10.918;2023-03-08T09:23:07;23.87;;;17.77;;
42338;SDS011;27993;45.392;10.918;2023-03-08T09:25:39;37.22;;;19.48;;
42338;SDS011;27993;45.392;10.918;2023-03-08T09:28:12;26.67;;;18.45;;
42338;SDS011;27993;45.392;10.918;2023-03-08T09:30:43;38.95;;;19.02;;
42338;SDS011;27993;45.392;10.918;2023-03-08T09:33:13;32.65;;;19.50;;
42338;SDS011;27993;45.392;10.918;2023-03-08T09:38:24;26.85;;;17.70;;
42338;SDS011;27993;45.392;10.918;2023-03-08T09:43:42;33.15;;;19.62;;
42338;SDS011;27993;45.392;10.918;2023-03-08T09:46:22;29.40;;;17.52;;
42338;SDS011;27993;45.392;10.918;2023-03-08T09:48:58;25.35;;;16.75;;
42338;SDS011;27993;45.392;10.918;2023-03-08T09:51:33;37.40;;;18.92;;
42338;SDS011;27993;45.392;10.918;2023-03-08T09:54:09;24.27;;;17.77;;
42338;SDS011;27993;45.392;10.918;2023-03-08T09:56:49;28.08;;;19.27;;
42338;SDS011;27993;45.392;10.918;2023-03-08T09:59:34;28.95;;;19.40;;
42338;SDS011;27993;45.392;10.918;2023-03-08T10:02:19;31.55;;;19.33;;
42338;SDS011;27993;45.392;10.918;2023-03-08T10:05:06;33.92;;;19.20;;
42338;SDS011;27993;45.392;10.918;2023-03-08T10:07:50;35.25;;;18.52;;
42338;SDS011;27993;45.392;10.918;2023-03-08T10:10:56;34.75;;;19.40;;
42338;SDS011;27993;45.392;10.918;2023-03-08T10:13:39;30.75;;;19.27;;
42338;SDS011;27993;45.392;10.918;2023-03-08T10:19:36;30.67;;;18.48;;
42338;SDS011;27993;45.392;10.918;2023-03-08T10:21:46;35.63;;;19.08;;
42338;SDS011;27993;45.392;10.918;2023-03-08T10:24:21;31.67;;;18.80;;
42338;SDS011;27993;45.392;10.918;2023-03-08T10:26:59;32.97;;;19.35;;
42338;SDS011;27993;45.392;10.918;2023-03-08T10:30:10;32.10;;;18.92;;
42338;SDS011;27993;45.392;10.918;2023-03-08T10:32:43;32.30;;;18.10;;
42338;SDS011;27993;45.392;10.918;2023-03-08T10:35:16;31.67;;;19.10;;
42338;SDS011;27993;45.392;10.918;2023-03-08T10:37:50;33.63;;;17.30;;
42338;SDS011;27993;45.392;10.918;2023-03-08T10:40:20;30.52;;;17.70;;
42338;SDS011;27993;45.392;10.918;2023-03-08T10:42:52;32.22;;;17.33;;
42338;SDS011;27993;45.392;10.918;2023-03-08T10:45:30;30.70;;;17.33;;
42338;SDS011;27993;45.392;10.918;2023-03-08T10:48:02;24.02;;;15.05;;
42338;SDS011;27993;45.392;10.918;2023-03-08T10:50:35;32.35;;;17.77;;
42338;SDS011;27993;45.392;10.918;2023-03-08T10:53:13;26.92;;;16.95;;
42338;SDS011;27993;45.392;10.918;2023-03-08T10:55:49;31.52;;;17.33;;
42338;SDS011;27993;45.392;10.918;2023-03-08T11:01:30;27.45;;;16.00;;
42338;SDS011;27993;45.392;10.918;2023-03-08T11:04:16;26.77;;;16.37;;
42338;SDS011;27993;45.392;10.918;2023-03-08T11:06:49;26.23;;;16.75;;
42338;SDS011;27993;45.392;10.918;2023-03-08T11:11:57;22.30;;;16.23;;
42338;SDS011;27993;45.392;10.918;2023-03-08T11:14:29;23.40;;;17.05;;
42338;SDS011;27993;45.392;10.918;2023-03-08T11:17:14;26.80;;;17.12;;
42338;SDS011;27993;45.392;10.918;2023-03-08T11:25:30;21.20;;;16.23;;
42338;SDS011;27993;45.392;10.918;2023-03-08T11:31:44;17.23;;;13.07;;
42338;SDS011;27993;45.392;10.918;2023-03-08T11:37:30;17.17;;;13.20;;
42338;SDS011;27993;45.392;10.918;2023-03-08T11:40:20;23.00;;;15.00;;
42338;SDS011;27993;45.392;10.918;2023-03-08T11:45:42;23.23;;;15.70;;
42338;SDS011;27993;45.392;10.918;2023-03-08T11:54:17;22.45;;;13.60;;
42338;SDS011;27993;45.392;10.918;2023-03-08T11:56:59;24.45;;;14.27;;
42338;SDS011;27993;45.392;10.918;2023-03-08T11:59:32;23.23;;;13.25;;
42338;SDS011;27993;45.392;10.918;2023-03-08T12:07:49;20.50;;;11.20;;
42338;SDS011;27993;45.392;10.918;2023-03-08T12:10:26;24.80;;;13.98;;
42338;SDS011;27993;45.392;10.918;2023-03-08T12:13:10;19.95;;;14.57;;
42338;SDS011;27993;45.392;10.918;2023-03-08T12:16:14;30.27;;;14.05;;
42338;SDS011;27993;45.392;10.918;2023-03-08T12:19:00;28.58;;;14.50;;
42338;SDS011;27993;45.392;10.918;2023-03-08T12:21:57;26.00;;;14.48;;
42338;SDS011;27993;45.392;10.918;2023-03-08T12:27:38;27.20;;;11.38;;
42338;SDS011;27993;45.392;10.918;2023-03-08T12:33:00;22.62;;;14.95;;
42338;SDS011;27993;45.392;10.918;2023-03-08T12:35:33;22.92;;;11.07;;
42338;SDS011;27993;45.392;10.918;2023-03-08T12:38:50;26.70;;;12.15;;
42338;SDS011;27993;45.392;10.918;2023-03-08T12:41:23;14.02;;;10.13;;
42338;SDS011;27993;45.392;10.918;2023-03-08T12:44:36;21.17;;;12.20;;
42338;SDS011;27993;45.392;10.918;2023-03-08T12:49:43;18.30;;;10.13;;
42338;SDS011;27993;45.392;10.918;2023-03-08T12:57:43;23.30;;;9.40;;
42338;SDS011;27993;45.392;10.918;2023-03-08T13:00:33;19.25;;;9.93;;
42338;SDS011;27993;45.392;10.918;2023-03-08T13:05:42;19.10;;;9.82;;
42338;SDS011;27993;45.392;10.918;2023-03-08T13:08:26;18.83;;;9.98;;
42338;SDS011;27993;45.392;10.918;2023-03-08T13:11:10;17.42;;;9.82;;
42338;SDS011;27993;45.392;10.918;2023-03-08T13:13:51;14.20;;;9.38;;
42338;SDS011;27993;45.392;10.918;2023-03-08T13:16:31;12.93;;;8.52;;
42338;SDS011;27993;45.392;10.918;2023-03-08T13:19:25;22.05;;;8.30;;
42338;SDS011;27993;45.392;10.918;2023-03-08T13:22:08;20.02;;;8.88;;
42338;SDS011;27993;45.392;10.918;2023-03-08T13:24:55;13.05;;;7.95;;
42338;SDS011;27993;45.392;10.918;2023-03-08T13:27:53;18.10;;;6.40;;
42338;SDS011;27993;45.392;10.918;2023-03-08T13:30:36;13.32;;;6.50;;
42338;SDS011;27993;45.392;10.918;2023-03-08T13:33:12;15.35;;;6.65;;
42338;SDS011;27993;45.392;10.918;2023-03-08T13:36:21;13.95;;;7.05;;
42338;SDS011;27993;45.392;10.918;2023-03-08T13:38:57;14.77;;;7.75;;
42338;SDS011;27993;45.392;10.918;2023-03-08T13:41:33;10.98;;;7.00;;
42338;SDS011;27993;45.392;10.918;2023-03-08T13:44:06;11.73;;;7.30;;
42338;SDS011;27993;45.392;10.918;2023-03-08T13:46:44;12.32;;;7.50;;
42338;SDS011;27993;45.392;10.918;2023-03-08T13:51:58;9.65;;;7.22;;
42338;SDS011;27993;45.392;10.918;2023-03-08T13:54:34;13.85;;;7.75;;
42338;SDS011;27993;45.392;10.918;2023-03-08T13:57:16;15.05;;;7.70;;
42338;SDS011;27993;45.392;10.918;2023-03-08T14:00:19;14.90;;;8.75;;
42338;SDS011;27993;45.392;10.918;2023-03-08T14:02:52;17.45;;;8.02;;
42338;SDS011;27993;45.392;10.918;2023-03-08T14:05:24;15.85;;;8.48;;
42338;SDS011;27993;45.392;10.918;2023-03-08T14:08:04;16.37;;;8.30;;
42338;SDS011;27993;45.392;10.918;2023-03-08T14:10:39;15.32;;;8.25;;
42338;SDS011;27993;45.392;10.918;2023-03-08T14:13:14;21.75;;;12.68;;
42338;SDS011;27993;45.392;10.918;2023-03-08T14:15:51;12.95;;;8.43;;
42338;SDS011;27993;45.392;10.918;2023-03-08T14:18:27;17.17;;;9.98;;
42338;SDS011;27993;45.392;10.918;2023-03-08T14:21:05;13.25;;;8.13;;
42338;SDS011;27993;45.392;10.918;2023-03-08T14:23:47;12.77;;;9.02;;
42338;SDS011;27993;45.392;10.918;2023-03-08T14:26:26;17.12;;;8.43;;
42338;SDS011;27993;45.392;10.918;2023-03-08T14:31:52;23.55;;;14.45;;
42338;SDS011;27993;45.392;10.918;2023-03-08T14:34:30;20.65;;;9.32;;
42338;SDS011;27993;45.392;10.918;2023-03-08T14:39:38;17.60;;;9.07;;
42338;SDS011;27993;45.392;10.918;2023-03-08T14:42:23;14.27;;;7.75;;
42338;SDS011;27993;45.392;10.918;2023-03-08T14:44:55;17.90;;;8.65;;
42338;SDS011;27993;45.392;10.918;2023-03-08T14:47:29;13.20;;;7.07;;
42338;SDS011;27993;45.392;10.918;2023-03-08T14:52:47;17.48;;;8.95;;
42338;SDS011;27993;45.392;10.918;2023-03-08T14:55:21;23.52;;;7.80;;
42338;SDS011;27993;45.392;10.918;2023-03-08T14:58:04;17.98;;;8.73;;
42338;SDS011;27993;45.392;10.918;2023-03-08T15:00:52;13.43;;;8.38;;
42338;SDS011;27993;45.392;10.918;2023-03-08T15:03:24;22.52;;;9.02;;
42338;SDS011;27993;45.392;10.918;2023-03-08T15:05:54;20.40;;;9.23;;
42338;SDS011;27993;45.392;10.918;2023-03-08T15:10:56;19.40;;;7.47;;
42338;SDS011;27993;45.392;10.918;2023-03-08T15:13:27;17.13;;;8.20;;
42338;SDS011;27993;45.392;10.918;2023-03-08T15:15:57;20.63;;;9.67;;
42338;SDS011;27993;45.392;10.918;2023-03-08T15:18:28;26.40;;;10.40;;
42338;SDS011;27993;45.392;10.918;2023-03-08T15:20:59;19.17;;;9.38;;
42338;SDS011;27993;45.392;10.918;2023-03-08T15:23:30;17.65;;;9.20;;
42338;SDS011;27993;45.392;10.918;2023-03-08T15:26:04;17.10;;;8.35;;
42338;SDS011;27993;45.392;10.918;2023-03-08T15:28:36;21.40;;;9.10;;
42338;SDS011;27993;45.392;10.918;2023-03-08T15:31:07;19.00;;;8.23;;
42338;SDS011;27993;45.392;10.918;2023-03-08T15:36:11;17.40;;;7.17;;
42338;SDS011;27993;45.392;10.918;2023-03-08T15:38:44;17.08;;;8.73;;
42338;SDS011;27993;45.392;10.918;2023-03-08T15:41:15;18.87;;;9.90;;
42338;SDS011;27993;45.392;10.918;2023-03-08T15:43:46;16.17;;;8.95;;
42338;SDS011;27993;45.392;10.918;2023-03-08T15:46:17;13.93;;;8.27;;
42338;SDS011;27993;45.392;10.918;2023-03-08T15:48:51;20.27;;;9.73;;
42338;SDS011;27993;45.392;10.918;2023-03-08T15:51:22;13.35;;;9.00;;
42338;SDS011;27993;45.392;10.918;2023-03-08T15:53:57;16.95;;;10.13;;
42338;SDS011;27993;45.392;10.918;2023-03-08T15:56:28;22.87;;;9.90;;
42338;SDS011;27993;45.392;10.918;2023-03-08T15:58:58;13.23;;;9.03;;
42338;SDS011;27993;45.392;10.918;2023-03-08T16:01:29;20.97;;;9.67;;
42338;SDS011;27993;45.392;10.918;2023-03-08T16:04:02;20.25;;;9.07;;
42338;SDS011;27993;45.392;10.918;2023-03-08T16:06:32;17.47;;;8.63;;
42338;SDS011;27993;45.392;10.918;2023-03-08T16:09:03;25.08;;;7.87;;
42338;SDS011;27993;45.392;10.918;2023-03-08T16:11:33;18.30;;;8.23;;
42338;SDS011;27993;45.392;10.918;2023-03-08T16:14:04;14.63;;;8.23;;
42338;SDS011;27993;45.392;10.918;2023-03-08T16:16:35;17.93;;;10.23;;
42338;SDS011;27993;45.392;10.918;2023-03-08T16:19:05;27.47;;;9.10;;
42338;SDS011;27993;45.392;10.918;2023-03-08T16:21:36;19.07;;;8.10;;